Brunswick Golden Isles Airport
KBQK : now visible

Airfield :











YOU CAN JOIN US ON...

 
LOGIN :

Register | Disclaimer

   EN    FR    IT 

 









Legend :    VFR   Marginal VFR   IFR   Intensive IFR   Very Intensive IFR
Visi :
Ceiling :
>= 8 km
>= 3000ft
5 to 8 km
1000 to 3000 ft
1500m to 5 km
500 to 1000 ft
800 to 1500m
200 to 500 ft
< 800m
< 200 ft
Symbols :   Thunderstorms  Fog  Heavy snow  Heavy precipitations  Wind > 20 kt






- Airport Elevation : 26 ft
- IATA code : BQK


KBQK - Brunswick Golden Isles

CURRENT METAR :
  • 260535Z AUTO 25006KT 10SM CLR 22/21 A2981 RMK AO2 T02220206

EXPIRED METARs :
  • 260515Z AUTO 25007KT 10SM CLR 22/21 A2982 RMK AO2 T02230208
  • 260455Z AUTO 24006KT 10SM SCT060 22/21 A2982 RMK AO2 T02240210
  • 260435Z AUTO 24007KT 10SM BKN060 23/21 A2982 RMK AO2 T02270214
  • 260415Z AUTO 24006KT 10SM SCT070 23/21 A2983 RMK AO2 T02270213
  • 260355Z AUTO 24006KT 10SM OVC070 23/22 A2983 RMK AO2 T02320220
  • 260335Z AUTO 24006KT 10SM SCT047 OVC060 23/22 A2983 RMK AO2 T02310223
  • 260315Z AUTO 23005KT 10SM SCT047 SCT060 OVC065 23/22 A2984 RMK AO2 T02290223
  • 260255Z AUTO 23005KT 10SM OVC060 23/22 A2984 RMK AO2 T02300224

TAF N/A
KZJX FIR / North America



MET'MAP, your aeronautical weather chart ! - Copyright ORBIFLY December 2007 - Disclaimer

ORBIFLY MET'MAP TEAM :

Programming & Development : Alexandra Zaïnal
Concept & original design : Baudouin d'Aumeries
Assistance for programming : Marc-Olivier Méhu
Technical & hardware support : Manuel Goepfert

Contact : metmap@orbifly.com




SOURCES & CREDITS :

   NOAA       Earth
Advisory